sensor_id;sensor_type;location;lat;lon;timestamp;P1;durP1;ratioP1;P2;durP2;ratioP2
10031;SDS011;5056;44.272;19.892;2023-10-08T00:00:24;8.20;;;5.30;;
10031;SDS011;5056;44.272;19.892;2023-10-08T00:03:18;7.77;;;5.40;;
10031;SDS011;5056;44.272;19.892;2023-10-08T00:05:45;6.90;;;5.37;;
10031;SDS011;5056;44.272;19.892;2023-10-08T00:08:14;7.03;;;6.33;;
10031;SDS011;5056;44.272;19.892;2023-10-08T00:10:42;11.00;;;8.40;;
10031;SDS011;5056;44.272;19.892;2023-10-08T00:13:10;10.53;;;7.70;;
10031;SDS011;5056;44.272;19.892;2023-10-08T00:15:39;7.23;;;5.83;;
10031;SDS011;5056;44.272;19.892;2023-10-08T00:18:07;8.63;;;5.63;;
10031;SDS011;5056;44.272;19.892;2023-10-08T00:20:38;7.33;;;5.53;;
10031;SDS011;5056;44.272;19.892;2023-10-08T00:23:13;7.93;;;6.20;;
10031;SDS011;5056;44.272;19.892;2023-10-08T00:25:57;7.37;;;6.27;;
10031;SDS011;5056;44.272;19.892;2023-10-08T00:28:29;8.10;;;5.90;;
10031;SDS011;5056;44.272;19.892;2023-10-08T00:30:58;8.13;;;5.97;;
10031;SDS011;5056;44.272;19.892;2023-10-08T00:33:31;6.33;;;5.73;;
10031;SDS011;5056;44.272;19.892;2023-10-08T00:36:03;6.73;;;5.40;;
10031;SDS011;5056;44.272;19.892;2023-10-08T00:38:42;7.17;;;5.43;;
10031;SDS011;5056;44.272;19.892;2023-10-08T00:41:12;6.60;;;4.70;;
10031;SDS011;5056;44.272;19.892;2023-10-08T00:43:39;6.40;;;5.13;;
10031;SDS011;5056;44.272;19.892;2023-10-08T00:46:07;6.27;;;5.20;;
10031;SDS011;5056;44.272;19.892;2023-10-08T00:52:08;6.53;;;5.77;;
10031;SDS011;5056;44.272;19.892;2023-10-08T00:54:54;5.67;;;5.03;;
10031;SDS011;5056;44.272;19.892;2023-10-08T00:57:36;6.20;;;5.33;;
10031;SDS011;5056;44.272;19.892;2023-10-08T01:00:08;6.80;;;4.77;;
10031;SDS011;5056;44.272;19.892;2023-10-08T01:02:42;6.63;;;5.30;;
10031;SDS011;5056;44.272;19.892;2023-10-08T01:05:12;9.63;;;5.80;;
10031;SDS011;5056;44.272;19.892;2023-10-08T01:10:16;7.57;;;5.47;;
10031;SDS011;5056;44.272;19.892;2023-10-08T01:12:46;8.23;;;5.23;;
10031;SDS011;5056;44.272;19.892;2023-10-08T01:15:29;8.40;;;5.50;;
10031;SDS011;5056;44.272;19.892;2023-10-08T01:18:00;7.47;;;5.40;;
10031;SDS011;5056;44.272;19.892;2023-10-08T01:20:30;5.53;;;4.93;;
10031;SDS011;5056;44.272;19.892;2023-10-08T01:23:04;6.70;;;4.83;;
10031;SDS011;5056;44.272;19.892;2023-10-08T01:25:35;7.57;;;5.07;;
10031;SDS011;5056;44.272;19.892;2023-10-08T01:28:03;8.00;;;5.37;;
10031;SDS011;5056;44.272;19.892;2023-10-08T01:30:35;5.03;;;4.53;;
10031;SDS011;5056;44.272;19.892;2023-10-08T01:33:07;6.83;;;5.07;;
10031;SDS011;5056;44.272;19.892;2023-10-08T01:35:38;7.43;;;4.83;;
10031;SDS011;5056;44.272;19.892;2023-10-08T01:38:08;7.50;;;5.27;;
10031;SDS011;5056;44.272;19.892;2023-10-08T01:40:39;6.37;;;5.23;;
10031;SDS011;5056;44.272;19.892;2023-10-08T01:43:06;6.87;;;5.10;;
10031;SDS011;5056;44.272;19.892;2023-10-08T01:45:36;6.73;;;4.90;;
10031;SDS011;5056;44.272;19.892;2023-10-08T01:48:06;7.53;;;5.40;;
10031;SDS011;5056;44.272;19.892;2023-10-08T01:50:36;8.93;;;5.50;;
10031;SDS011;5056;44.272;19.892;2023-10-08T01:53:04;9.03;;;5.80;;
10031;SDS011;5056;44.272;19.892;2023-10-08T01:55:36;6.27;;;4.67;;
10031;SDS011;5056;44.272;19.892;2023-10-08T01:58:15;7.03;;;5.00;;
10031;SDS011;5056;44.272;19.892;2023-10-08T02:00:44;7.13;;;5.40;;
10031;SDS011;5056;44.272;19.892;2023-10-08T02:03:18;6.63;;;5.50;;
10031;SDS011;5056;44.272;19.892;2023-10-08T02:05:50;6.03;;;5.43;;
10031;SDS011;5056;44.272;19.892;2023-10-08T02:08:19;5.83;;;4.97;;
10031;SDS011;5056;44.272;19.892;2023-10-08T02:10:48;6.10;;;5.10;;
10031;SDS011;5056;44.272;19.892;2023-10-08T02:13:15;6.80;;;4.90;;
10031;SDS011;5056;44.272;19.892;2023-10-08T02:15:48;6.43;;;5.73;;
10031;SDS011;5056;44.272;19.892;2023-10-08T02:18:16;6.90;;;5.43;;
10031;SDS011;5056;44.272;19.892;2023-10-08T02:20:44;11.33;;;5.80;;
10031;SDS011;5056;44.272;19.892;2023-10-08T02:23:11;7.63;;;5.30;;
10031;SDS011;5056;44.272;19.892;2023-10-08T02:25:38;8.83;;;5.67;;
10031;SDS011;5056;44.272;19.892;2023-10-08T02:28:10;8.23;;;5.03;;
10031;SDS011;5056;44.272;19.892;2023-10-08T02:30:40;7.00;;;5.30;;
10031;SDS011;5056;44.272;19.892;2023-10-08T02:33:07;11.97;;;5.57;;
10031;SDS011;5056;44.272;19.892;2023-10-08T02:35:39;34.63;;;7.43;;
10031;SDS011;5056;44.272;19.892;2023-10-08T02:38:08;9.27;;;5.40;;
10031;SDS011;5056;44.272;19.892;2023-10-08T02:40:41;5.50;;;4.63;;
10031;SDS011;5056;44.272;19.892;2023-10-08T02:43:13;5.67;;;5.07;;
10031;SDS011;5056;44.272;19.892;2023-10-08T02:45:41;5.13;;;4.60;;
10031;SDS011;5056;44.272;19.892;2023-10-08T02:48:12;5.20;;;4.57;;
10031;SDS011;5056;44.272;19.892;2023-10-08T02:50:41;5.30;;;4.80;;
10031;SDS011;5056;44.272;19.892;2023-10-08T02:53:10;6.03;;;4.50;;
10031;SDS011;5056;44.272;19.892;2023-10-08T02:55:38;5.80;;;4.90;;
10031;SDS011;5056;44.272;19.892;2023-10-08T02:58:09;6.30;;;4.60;;
10031;SDS011;5056;44.272;19.892;2023-10-08T03:00:44;6.03;;;5.00;;
10031;SDS011;5056;44.272;19.892;2023-10-08T03:03:12;5.10;;;4.60;;
10031;SDS011;5056;44.272;19.892;2023-10-08T03:05:43;4.83;;;4.43;;
10031;SDS011;5056;44.272;19.892;2023-10-08T03:08:11;4.77;;;4.27;;
10031;SDS011;5056;44.272;19.892;2023-10-08T03:10:44;7.17;;;5.07;;
10031;SDS011;5056;44.272;19.892;2023-10-08T03:13:13;5.13;;;4.60;;
10031;SDS011;5056;44.272;19.892;2023-10-08T03:15:43;5.60;;;5.00;;
10031;SDS011;5056;44.272;19.892;2023-10-08T03:18:23;6.07;;;5.13;;
10031;SDS011;5056;44.272;19.892;2023-10-08T03:20:50;6.07;;;3.93;;
10031;SDS011;5056;44.272;19.892;2023-10-08T03:23:18;5.73;;;4.97;;
10031;SDS011;5056;44.272;19.892;2023-10-08T03:25:59;7.40;;;4.77;;
10031;SDS011;5056;44.272;19.892;2023-10-08T03:28:36;5.27;;;4.20;;
10031;SDS011;5056;44.272;19.892;2023-10-08T03:31:12;4.90;;;4.20;;
10031;SDS011;5056;44.272;19.892;2023-10-08T03:33:43;4.73;;;4.30;;
10031;SDS011;5056;44.272;19.892;2023-10-08T03:36:14;5.00;;;4.47;;
10031;SDS011;5056;44.272;19.892;2023-10-08T03:38:46;5.17;;;4.57;;
10031;SDS011;5056;44.272;19.892;2023-10-08T03:41:21;6.13;;;4.80;;
10031;SDS011;5056;44.272;19.892;2023-10-08T03:43:58;6.73;;;4.90;;
10031;SDS011;5056;44.272;19.892;2023-10-08T03:46:34;7.70;;;5.13;;
10031;SDS011;5056;44.272;19.892;2023-10-08T03:49:04;5.23;;;4.67;;
10031;SDS011;5056;44.272;19.892;2023-10-08T03:51:41;5.17;;;4.33;;
10031;SDS011;5056;44.272;19.892;2023-10-08T03:54:08;4.93;;;4.43;;
10031;SDS011;5056;44.272;19.892;2023-10-08T03:56:46;7.60;;;4.80;;
10031;SDS011;5056;44.272;19.892;2023-10-08T03:59:14;5.73;;;4.63;;
10031;SDS011;5056;44.272;19.892;2023-10-08T04:01:49;6.57;;;4.67;;
10031;SDS011;5056;44.272;19.892;2023-10-08T04:04:29;5.57;;;4.80;;
10031;SDS011;5056;44.272;19.892;2023-10-08T04:07:15;4.50;;;4.10;;
10031;SDS011;5056;44.272;19.892;2023-10-08T04:09:54;4.77;;;4.13;;
10031;SDS011;5056;44.272;19.892;2023-10-08T04:12:41;5.20;;;4.70;;
10031;SDS011;5056;44.272;19.892;2023-10-08T04:15:18;5.00;;;4.50;;
10031;SDS011;5056;44.272;19.892;2023-10-08T04:17:48;4.37;;;3.90;;
10031;SDS011;5056;44.272;19.892;2023-10-08T04:20:17;6.00;;;4.70;;
10031;SDS011;5056;44.272;19.892;2023-10-08T04:23:00;7.47;;;4.50;;
10031;SDS011;5056;44.272;19.892;2023-10-08T04:25:27;5.93;;;4.57;;
10031;SDS011;5056;44.272;19.892;2023-10-08T04:27:54;4.80;;;4.30;;
10031;SDS011;5056;44.272;19.892;2023-10-08T04:30:24;4.60;;;4.07;;
10031;SDS011;5056;44.272;19.892;2023-10-08T04:35:48;5.57;;;4.83;;
10031;SDS011;5056;44.272;19.892;2023-10-08T04:38:17;8.77;;;5.10;;
10031;SDS011;5056;44.272;19.892;2023-10-08T04:40:47;6.17;;;4.60;;
10031;SDS011;5056;44.272;19.892;2023-10-08T04:43:16;4.37;;;3.90;;
10031;SDS011;5056;44.272;19.892;2023-10-08T04:49:00;8.27;;;5.50;;
10031;SDS011;5056;44.272;19.892;2023-10-08T04:51:34;6.10;;;5.17;;
10031;SDS011;5056;44.272;19.892;2023-10-08T04:54:09;10.23;;;5.50;;
10031;SDS011;5056;44.272;19.892;2023-10-08T04:56:41;6.63;;;4.80;;
10031;SDS011;5056;44.272;19.892;2023-10-08T04:59:08;6.23;;;5.20;;
10031;SDS011;5056;44.272;19.892;2023-10-08T05:01:37;5.57;;;4.23;;
10031;SDS011;5056;44.272;19.892;2023-10-08T05:04:14;6.30;;;5.13;;
10031;SDS011;5056;44.272;19.892;2023-10-08T05:06:52;6.27;;;5.20;;
10031;SDS011;5056;44.272;19.892;2023-10-08T05:09:43;4.67;;;4.03;;
10031;SDS011;5056;44.272;19.892;2023-10-08T05:12:25;6.13;;;5.13;;
10031;SDS011;5056;44.272;19.892;2023-10-08T05:14:59;5.90;;;5.30;;
10031;SDS011;5056;44.272;19.892;2023-10-08T05:17:47;5.70;;;5.07;;
10031;SDS011;5056;44.272;19.892;2023-10-08T05:20:36;7.63;;;4.77;;
10031;SDS011;5056;44.272;19.892;2023-10-08T05:23:25;7.70;;;5.07;;
10031;SDS011;5056;44.272;19.892;2023-10-08T05:26:34;6.33;;;4.57;;
10031;SDS011;5056;44.272;19.892;2023-10-08T05:29:07;5.30;;;4.80;;
10031;SDS011;5056;44.272;19.892;2023-10-08T05:31:49;7.73;;;5.37;;
10031;SDS011;5056;44.272;19.892;2023-10-08T05:34:42;7.13;;;5.43;;
10031;SDS011;5056;44.272;19.892;2023-10-08T05:37:18;6.07;;;4.97;;
10031;SDS011;5056;44.272;19.892;2023-10-08T05:40:07;7.13;;;5.17;;
10031;SDS011;5056;44.272;19.892;2023-10-08T05:42:49;5.83;;;4.47;;
10031;SDS011;5056;44.272;19.892;2023-10-08T05:45:26;6.83;;;5.23;;
10031;SDS011;5056;44.272;19.892;2023-10-08T05:47:55;8.83;;;6.07;;
10031;SDS011;5056;44.272;19.892;2023-10-08T05:50:41;7.27;;;4.83;;
10031;SDS011;5056;44.272;19.892;2023-10-08T05:53:23;6.13;;;5.50;;
10031;SDS011;5056;44.272;19.892;2023-10-08T05:56:08;6.30;;;5.40;;
10031;SDS011;5056;44.272;19.892;2023-10-08T05:58:53;6.97;;;4.87;;
10031;SDS011;5056;44.272;19.892;2023-10-08T06:01:40;6.30;;;5.27;;
10031;SDS011;5056;44.272;19.892;2023-10-08T06:04:07;6.80;;;5.00;;
10031;SDS011;5056;44.272;19.892;2023-10-08T06:07:07;6.73;;;5.83;;
10031;SDS011;5056;44.272;19.892;2023-10-08T06:09:43;7.10;;;5.97;;
10031;SDS011;5056;44.272;19.892;2023-10-08T06:12:26;8.93;;;6.70;;
10031;SDS011;5056;44.272;19.892;2023-10-08T06:14:55;9.30;;;7.20;;
10031;SDS011;5056;44.272;19.892;2023-10-08T06:17:36;9.73;;;7.57;;
10031;SDS011;5056;44.272;19.892;2023-10-08T06:20:20;9.17;;;7.97;;
10031;SDS011;5056;44.272;19.892;2023-10-08T06:22:51;9.27;;;7.93;;
10031;SDS011;5056;44.272;19.892;2023-10-08T06:25:28;9.40;;;7.67;;
10031;SDS011;5056;44.272;19.892;2023-10-08T06:27:55;11.03;;;8.17;;
10031;SDS011;5056;44.272;19.892;2023-10-08T06:30:24;8.30;;;7.50;;
10031;SDS011;5056;44.272;19.892;2023-10-08T06:32:54;10.02;;;7.50;;
10031;SDS011;5056;44.272;19.892;2023-10-08T06:35:22;11.73;;;7.63;;
10031;SDS011;5056;44.272;19.892;2023-10-08T06:37:54;7.65;;;6.82;;
10031;SDS011;5056;44.272;19.892;2023-10-08T06:40:25;6.95;;;6.25;;
10031;SDS011;5056;44.272;19.892;2023-10-08T06:43:08;7.38;;;6.63;;
10031;SDS011;5056;44.272;19.892;2023-10-08T06:45:40;8.55;;;6.53;;
10031;SDS011;5056;44.272;19.892;2023-10-08T06:48:08;8.07;;;6.65;;
10031;SDS011;5056;44.272;19.892;2023-10-08T06:50:43;8.95;;;7.22;;
10031;SDS011;5056;44.272;19.892;2023-10-08T06:53:10;9.23;;;7.50;;
10031;SDS011;5056;44.272;19.892;2023-10-08T06:55:39;11.60;;;7.43;;
10031;SDS011;5056;44.272;19.892;2023-10-08T06:58:12;8.75;;;7.40;;
10031;SDS011;5056;44.272;19.892;2023-10-08T07:00:39;9.45;;;7.80;;
10031;SDS011;5056;44.272;19.892;2023-10-08T07:03:12;8.38;;;6.75;;
10031;SDS011;5056;44.272;19.892;2023-10-08T07:05:43;8.68;;;7.32;;
10031;SDS011;5056;44.272;19.892;2023-10-08T07:08:19;8.13;;;7.13;;
10031;SDS011;5056;44.272;19.892;2023-10-08T07:10:48;8.30;;;7.45;;
10031;SDS011;5056;44.272;19.892;2023-10-08T07:13:20;9.18;;;8.23;;
10031;SDS011;5056;44.272;19.892;2023-10-08T07:15:51;10.65;;;9.20;;
10031;SDS011;5056;44.272;19.892;2023-10-08T07:18:20;9.63;;;8.23;;
10031;SDS011;5056;44.272;19.892;2023-10-08T07:20:50;9.57;;;8.02;;
10031;SDS011;5056;44.272;19.892;2023-10-08T07:23:20;8.40;;;7.53;;
10031;SDS011;5056;44.272;19.892;2023-10-08T07:25:52;8.07;;;7.30;;
10031;SDS011;5056;44.272;19.892;2023-10-08T07:28:40;8.00;;;7.20;;
10031;SDS011;5056;44.272;19.892;2023-10-08T07:31:12;7.20;;;6.47;;
10031;SDS011;5056;44.272;19.892;2023-10-08T07:33:41;6.97;;;6.22;;
10031;SDS011;5056;44.272;19.892;2023-10-08T07:36:09;8.63;;;6.78;;
10031;SDS011;5056;44.272;19.892;2023-10-08T07:38:39;7.75;;;7.00;;
10031;SDS011;5056;44.272;19.892;2023-10-08T07:41:07;7.45;;;6.60;;
10031;SDS011;5056;44.272;19.892;2023-10-08T07:43:36;7.65;;;6.85;;
10031;SDS011;5056;44.272;19.892;2023-10-08T07:46:03;9.77;;;7.40;;
10031;SDS011;5056;44.272;19.892;2023-10-08T07:48:30;8.10;;;7.05;;
10031;SDS011;5056;44.272;19.892;2023-10-08T07:51:12;7.47;;;6.68;;
10031;SDS011;5056;44.272;19.892;2023-10-08T07:53:40;7.53;;;6.72;;
10031;SDS011;5056;44.272;19.892;2023-10-08T07:56:07;8.25;;;7.45;;
10031;SDS011;5056;44.272;19.892;2023-10-08T07:58:38;7.57;;;6.88;;
10031;SDS011;5056;44.272;19.892;2023-10-08T08:01:13;8.70;;;7.07;;
10031;SDS011;5056;44.272;19.892;2023-10-08T08:03:40;8.73;;;7.80;;
10031;SDS011;5056;44.272;19.892;2023-10-08T08:06:10;8.48;;;7.60;;
10031;SDS011;5056;44.272;19.892;2023-10-08T08:08:39;12.07;;;8.80;;
10031;SDS011;5056;44.272;19.892;2023-10-08T08:11:06;9.68;;;8.70;;
10031;SDS011;5056;44.272;19.892;2023-10-08T08:13:38;9.55;;;8.55;;
10031;SDS011;5056;44.272;19.892;2023-10-08T08:16:08;9.80;;;8.80;;
10031;SDS011;5056;44.272;19.892;2023-10-08T08:18:46;9.57;;;8.25;;
10031;SDS011;5056;44.272;19.892;2023-10-08T08:21:15;9.18;;;8.18;;
10031;SDS011;5056;44.272;19.892;2023-10-08T08:23:45;9.55;;;8.55;;
10031;SDS011;5056;44.272;19.892;2023-10-08T08:26:17;10.05;;;9.05;;
10031;SDS011;5056;44.272;19.892;2023-10-08T08:28:58;9.55;;;8.57;;
10031;SDS011;5056;44.272;19.892;2023-10-08T08:31:27;9.00;;;8.10;;
10031;SDS011;5056;44.272;19.892;2023-10-08T08:33:59;9.07;;;8.18;;
10031;SDS011;5056;44.272;19.892;2023-10-08T08:36:28;7.82;;;7.03;;
10031;SDS011;5056;44.272;19.892;2023-10-08T08:38:57;8.10;;;7.30;;
10031;SDS011;5056;44.272;19.892;2023-10-08T08:41:29;7.78;;;6.53;;
10031;SDS011;5056;44.272;19.892;2023-10-08T08:44:03;5.97;;;5.38;;
10031;SDS011;5056;44.272;19.892;2023-10-08T08:46:38;5.20;;;4.80;;
10031;SDS011;5056;44.272;19.892;2023-10-08T08:49:05;6.30;;;5.80;;
10031;SDS011;5056;44.272;19.892;2023-10-08T08:51:34;5.53;;;5.03;;
10031;SDS011;5056;44.272;19.892;2023-10-08T08:54:02;5.63;;;5.03;;
10031;SDS011;5056;44.272;19.892;2023-10-08T08:56:32;5.20;;;4.75;;
10031;SDS011;5056;44.272;19.892;2023-10-08T08:58:59;5.20;;;4.68;;
10031;SDS011;5056;44.272;19.892;2023-10-08T09:01:29;5.65;;;5.13;;
10031;SDS011;5056;44.272;19.892;2023-10-08T09:04:01;6.63;;;5.10;;
10031;SDS011;5056;44.272;19.892;2023-10-08T09:06:30;6.20;;;5.60;;
10031;SDS011;5056;44.272;19.892;2023-10-08T09:08:59;5.90;;;5.22;;
10031;SDS011;5056;44.272;19.892;2023-10-08T09:11:40;6.43;;;5.28;;
10031;SDS011;5056;44.272;19.892;2023-10-08T09:14:09;7.07;;;5.10;;
10031;SDS011;5056;44.272;19.892;2023-10-08T09:16:37;5.35;;;4.85;;
10031;SDS011;5056;44.272;19.892;2023-10-08T09:19:04;7.43;;;4.95;;
10031;SDS011;5056;44.272;19.892;2023-10-08T09:21:37;7.43;;;5.25;;
10031;SDS011;5056;44.272;19.892;2023-10-08T09:24:04;6.80;;;5.18;;
10031;SDS011;5056;44.272;19.892;2023-10-08T09:26:35;8.27;;;5.63;;
10031;SDS011;5056;44.272;19.892;2023-10-08T09:29:05;8.57;;;6.15;;
10031;SDS011;5056;44.272;19.892;2023-10-08T09:31:34;7.03;;;6.30;;
10031;SDS011;5056;44.272;19.892;2023-10-08T09:34:01;6.90;;;5.95;;
10031;SDS011;5056;44.272;19.892;2023-10-08T09:36:29;6.93;;;5.88;;
10031;SDS011;5056;44.272;19.892;2023-10-08T09:38:59;7.82;;;6.18;;
10031;SDS011;5056;44.272;19.892;2023-10-08T09:41:31;6.95;;;5.40;;
10031;SDS011;5056;44.272;19.892;2023-10-08T09:43:58;8.60;;;5.82;;
10031;SDS011;5056;44.272;19.892;2023-10-08T09:46:28;8.10;;;5.60;;
10031;SDS011;5056;44.272;19.892;2023-10-08T09:48:59;6.88;;;5.32;;
10031;SDS011;5056;44.272;19.892;2023-10-08T09:51:26;7.72;;;5.57;;
10031;SDS011;5056;44.272;19.892;2023-10-08T09:53:57;6.70;;;5.60;;
10031;SDS011;5056;44.272;19.892;2023-10-08T09:56:31;7.40;;;6.03;;
10031;SDS011;5056;44.272;19.892;2023-10-08T09:58:59;7.07;;;5.43;;
10031;SDS011;5056;44.272;19.892;2023-10-08T10:01:26;6.97;;;4.72;;
10031;SDS011;5056;44.272;19.892;2023-10-08T10:03:53;7.15;;;4.88;;
10031;SDS011;5056;44.272;19.892;2023-10-08T10:06:26;4.93;;;4.45;;
10031;SDS011;5056;44.272;19.892;2023-10-08T10:08:58;6.63;;;4.47;;
10031;SDS011;5056;44.272;19.892;2023-10-08T10:11:27;6.85;;;5.15;;
10031;SDS011;5056;44.272;19.892;2023-10-08T10:13:57;5.30;;;4.65;;
10031;SDS011;5056;44.272;19.892;2023-10-08T10:16:26;6.38;;;4.30;;
10031;SDS011;5056;44.272;19.892;2023-10-08T10:18:55;4.95;;;4.20;;
10031;SDS011;5056;44.272;19.892;2023-10-08T10:21:29;4.70;;;4.03;;
10031;SDS011;5056;44.272;19.892;2023-10-08T10:23:58;5.75;;;4.53;;
10031;SDS011;5056;44.272;19.892;2023-10-08T10:26:26;5.93;;;4.55;;
10031;SDS011;5056;44.272;19.892;2023-10-08T10:31:45;6.05;;;4.57;;
10031;SDS011;5056;44.272;19.892;2023-10-08T10:34:13;8.00;;;3.92;;
10031;SDS011;5056;44.272;19.892;2023-10-08T10:36:44;7.07;;;4.22;;
10031;SDS011;5056;44.272;19.892;2023-10-08T10:39:14;6.55;;;4.47;;
10031;SDS011;5056;44.272;19.892;2023-10-08T10:41:46;9.23;;;4.63;;
10031;SDS011;5056;44.272;19.892;2023-10-08T10:44:13;4.75;;;4.03;;
10031;SDS011;5056;44.272;19.892;2023-10-08T10:46:41;6.55;;;4.53;;
10031;SDS011;5056;44.272;19.892;2023-10-08T10:52:16;5.63;;;4.05;;
10031;SDS011;5056;44.272;19.892;2023-10-08T10:55:00;4.47;;;4.05;;
10031;SDS011;5056;44.272;19.892;2023-10-08T10:57:44;9.50;;;4.43;;
10031;SDS011;5056;44.272;19.892;2023-10-08T11:00:21;5.45;;;4.25;;
10031;SDS011;5056;44.272;19.892;2023-10-08T11:03:08;6.30;;;4.45;;
10031;SDS011;5056;44.272;19.892;2023-10-08T11:05:43;6.60;;;4.18;;
10031;SDS011;5056;44.272;19.892;2023-10-08T11:08:18;4.95;;;4.18;;
10031;SDS011;5056;44.272;19.892;2023-10-08T11:10:46;5.88;;;4.30;;
10031;SDS011;5056;44.272;19.892;2023-10-08T11:13:16;6.38;;;4.57;;
10031;SDS011;5056;44.272;19.892;2023-10-08T11:15:44;7.70;;;4.22;;
10031;SDS011;5056;44.272;19.892;2023-10-08T11:18:15;5.80;;;4.18;;
10031;SDS011;5056;44.272;19.892;2023-10-08T11:20:50;5.15;;;4.28;;
10031;SDS011;5056;44.272;19.892;2023-10-08T11:23:34;8.18;;;4.43;;
10031;SDS011;5056;44.272;19.892;2023-10-08T11:26:03;4.90;;;4.40;;
10031;SDS011;5056;44.272;19.892;2023-10-08T11:28:31;5.35;;;4.20;;
10031;SDS011;5056;44.272;19.892;2023-10-08T11:31:00;6.00;;;4.25;;
10031;SDS011;5056;44.272;19.892;2023-10-08T11:33:35;6.68;;;4.40;;
10031;SDS011;5056;44.272;19.892;2023-10-08T11:36:10;5.65;;;4.32;;
10031;SDS011;5056;44.272;19.892;2023-10-08T11:38:46;5.38;;;4.40;;
10031;SDS011;5056;44.272;19.892;2023-10-08T11:41:18;4.65;;;4.07;;
10031;SDS011;5056;44.272;19.892;2023-10-08T11:43:54;6.78;;;4.63;;
10031;SDS011;5056;44.272;19.892;2023-10-08T11:46:23;9.15;;;4.50;;
10031;SDS011;5056;44.272;19.892;2023-10-08T11:49:04;5.95;;;4.35;;
10031;SDS011;5056;44.272;19.892;2023-10-08T11:51:32;4.40;;;4.00;;
10031;SDS011;5056;44.272;19.892;2023-10-08T11:54:01;7.63;;;4.55;;
10031;SDS011;5056;44.272;19.892;2023-10-08T11:56:32;16.70;;;5.60;;
10031;SDS011;5056;44.272;19.892;2023-10-08T11:59:02;7.30;;;4.38;;
10031;SDS011;5056;44.272;19.892;2023-10-08T12:01:33;6.95;;;4.15;;
10031;SDS011;5056;44.272;19.892;2023-10-08T12:04:04;9.38;;;4.93;;
10031;SDS011;5056;44.272;19.892;2023-10-08T12:06:38;11.45;;;4.63;;
10031;SDS011;5056;44.272;19.892;2023-10-08T12:09:08;9.48;;;4.72;;
10031;SDS011;5056;44.272;19.892;2023-10-08T12:11:37;5.43;;;4.18;;
10031;SDS011;5056;44.272;19.892;2023-10-08T12:14:05;9.63;;;4.70;;
10031;SDS011;5056;44.272;19.892;2023-10-08T12:16:32;7.13;;;4.30;;
10031;SDS011;5056;44.272;19.892;2023-10-08T12:19:01;8.05;;;4.85;;
10031;SDS011;5056;44.272;19.892;2023-10-08T12:21:40;8.63;;;4.50;;
10031;SDS011;5056;44.272;19.892;2023-10-08T12:24:12;8.40;;;4.18;;
10031;SDS011;5056;44.272;19.892;2023-10-08T12:26:40;7.82;;;4.70;;
10031;SDS011;5056;44.272;19.892;2023-10-08T12:29:21;6.15;;;3.90;;
10031;SDS011;5056;44.272;19.892;2023-10-08T12:31:52;8.48;;;4.60;;
10031;SDS011;5056;44.272;19.892;2023-10-08T12:34:25;10.15;;;4.88;;
10031;SDS011;5056;44.272;19.892;2023-10-08T12:36:54;6.68;;;4.10;;
10031;SDS011;5056;44.272;19.892;2023-10-08T12:39:26;6.53;;;4.22;;
10031;SDS011;5056;44.272;19.892;2023-10-08T12:41:54;7.07;;;3.85;;
10031;SDS011;5056;44.272;19.892;2023-10-08T12:44:32;9.90;;;4.53;;
10031;SDS011;5056;44.272;19.892;2023-10-08T12:47:01;9.55;;;4.93;;
10031;SDS011;5056;44.272;19.892;2023-10-08T12:49:31;7.40;;;4.47;;
10031;SDS011;5056;44.272;19.892;2023-10-08T12:51:59;6.20;;;4.38;;
10031;SDS011;5056;44.272;19.892;2023-10-08T12:54:52;6.88;;;4.43;;
10031;SDS011;5056;44.272;19.892;2023-10-08T12:57:21;4.93;;;3.88;;
10031;SDS011;5056;44.272;19.892;2023-10-08T13:00:00;4.68;;;4.00;;
10031;SDS011;5056;44.272;19.892;2023-10-08T13:02:28;9.27;;;5.47;;
10031;SDS011;5056;44.272;19.892;2023-10-08T13:04:59;8.00;;;4.45;;
10031;SDS011;5056;44.272;19.892;2023-10-08T13:07:27;12.65;;;4.65;;
10031;SDS011;5056;44.272;19.892;2023-10-08T13:10:06;10.18;;;5.18;;
10031;SDS011;5056;44.272;19.892;2023-10-08T13:12:36;6.93;;;4.35;;
10031;SDS011;5056;44.272;19.892;2023-10-08T13:15:06;8.55;;;4.82;;
10031;SDS011;5056;44.272;19.892;2023-10-08T13:17:34;6.55;;;4.75;;
10031;SDS011;5056;44.272;19.892;2023-10-08T13:20:02;6.22;;;3.92;;
10031;SDS011;5056;44.272;19.892;2023-10-08T13:25:33;5.80;;;4.50;;
10031;SDS011;5056;44.272;19.892;2023-10-08T13:28:04;5.22;;;4.18;;
10031;SDS011;5056;44.272;19.892;2023-10-08T13:30:37;8.55;;;5.07;;
10031;SDS011;5056;44.272;19.892;2023-10-08T13:33:04;7.55;;;4.95;;
10031;SDS011;5056;44.272;19.892;2023-10-08T13:35:34;9.52;;;5.20;;
10031;SDS011;5056;44.272;19.892;2023-10-08T13:38:14;9.13;;;5.40;;
10031;SDS011;5056;44.272;19.892;2023-10-08T13:40:43;7.30;;;4.85;;
10031;SDS011;5056;44.272;19.892;2023-10-08T13:43:27;7.55;;;5.22;;
10031;SDS011;5056;44.272;19.892;2023-10-08T13:46:03;9.63;;;5.20;;
10031;SDS011;5056;44.272;19.892;2023-10-08T13:48:32;9.02;;;5.30;;
10031;SDS011;5056;44.272;19.892;2023-10-08T13:51:00;10.70;;;6.70;;
10031;SDS011;5056;44.272;19.892;2023-10-08T13:53:29;9.90;;;6.15;;
10031;SDS011;5056;44.272;19.892;2023-10-08T13:56:05;10.93;;;5.95;;
10031;SDS011;5056;44.272;19.892;2023-10-08T13:58:31;6.82;;;4.57;;
10031;SDS011;5056;44.272;19.892;2023-10-08T14:01:00;5.93;;;4.60;;
10031;SDS011;5056;44.272;19.892;2023-10-08T14:03:40;5.78;;;4.63;;
10031;SDS011;5056;44.272;19.892;2023-10-08T14:06:07;7.30;;;5.38;;
10031;SDS011;5056;44.272;19.892;2023-10-08T14:08:35;6.18;;;4.47;;
10031;SDS011;5056;44.272;19.892;2023-10-08T14:11:06;6.45;;;4.70;;
10031;SDS011;5056;44.272;19.892;2023-10-08T14:13:33;5.93;;;4.45;;
10031;SDS011;5056;44.272;19.892;2023-10-08T14:16:02;7.28;;;4.57;;
10031;SDS011;5056;44.272;19.892;2023-10-08T14:18:33;6.75;;;4.53;;
10031;SDS011;5056;44.272;19.892;2023-10-08T14:21:10;6.20;;;4.72;;
10031;SDS011;5056;44.272;19.892;2023-10-08T14:23:40;6.20;;;3.92;;
10031;SDS011;5056;44.272;19.892;2023-10-08T14:26:11;5.70;;;4.25;;
10031;SDS011;5056;44.272;19.892;2023-10-08T14:28:40;5.35;;;4.65;;
10031;SDS011;5056;44.272;19.892;2023-10-08T14:31:16;6.20;;;4.57;;
10031;SDS011;5056;44.272;19.892;2023-10-08T14:33:47;6.80;;;4.63;;
10031;SDS011;5056;44.272;19.892;2023-10-08T14:36:30;7.82;;;5.13;;
10031;SDS011;5056;44.272;19.892;2023-10-08T14:39:14;5.90;;;4.25;;
10031;SDS011;5056;44.272;19.892;2023-10-08T14:42:01;8.10;;;4.95;;
10031;SDS011;5056;44.272;19.892;2023-10-08T14:44:46;7.63;;;4.95;;
10031;SDS011;5056;44.272;19.892;2023-10-08T14:47:14;6.53;;;5.28;;
10031;SDS011;5056;44.272;19.892;2023-10-08T14:49:41;8.20;;;6.22;;
10031;SDS011;5056;44.272;19.892;2023-10-08T14:52:08;9.15;;;6.30;;
10031;SDS011;5056;44.272;19.892;2023-10-08T14:54:36;8.40;;;6.38;;
10031;SDS011;5056;44.272;19.892;2023-10-08T14:57:06;9.50;;;6.10;;
10031;SDS011;5056;44.272;19.892;2023-10-08T14:59:36;10.40;;;6.72;;
10031;SDS011;5056;44.272;19.892;2023-10-08T15:02:04;9.05;;;7.93;;
10031;SDS011;5056;44.272;19.892;2023-10-08T15:04:33;12.45;;;8.27;;
10031;SDS011;5056;44.272;19.892;2023-10-08T15:07:05;11.48;;;10.00;;
10031;SDS011;5056;44.272;19.892;2023-10-08T15:09:36;12.57;;;10.38;;
10031;SDS011;5056;44.272;19.892;2023-10-08T15:12:06;12.63;;;10.07;;
10031;SDS011;5056;44.272;19.892;2023-10-08T15:14:34;11.93;;;9.82;;
10031;SDS011;5056;44.272;19.892;2023-10-08T15:17:03;14.15;;;9.20;;
10031;SDS011;5056;44.272;19.892;2023-10-08T15:19:31;13.73;;;10.23;;
10031;SDS011;5056;44.272;19.892;2023-10-08T15:21:58;14.48;;;9.88;;
10031;SDS011;5056;44.272;19.892;2023-10-08T15:24:26;13.40;;;8.98;;
10031;SDS011;5056;44.272;19.892;2023-10-08T15:26:53;10.15;;;9.07;;
10031;SDS011;5056;44.272;19.892;2023-10-08T15:29:22;10.32;;;9.00;;
10031;SDS011;5056;44.272;19.892;2023-10-08T15:31:51;13.65;;;9.32;;
10031;SDS011;5056;44.272;19.892;2023-10-08T15:34:19;13.32;;;9.43;;
10031;SDS011;5056;44.272;19.892;2023-10-08T15:36:47;12.80;;;9.50;;